sensor_id;sensor_type;location;lat;lon;timestamp;temperature;humidity
14101;DHT22;7127;49.372;8.166;2022-12-18T00:00:45;-2.00;51.70
14101;DHT22;7127;49.372;8.166;2022-12-18T00:03:13;-2.10;51.50
14101;DHT22;7127;49.372;8.166;2022-12-18T00:05:46;-2.00;51.70
14101;DHT22;7127;49.372;8.166;2022-12-18T00:08:14;-2.00;51.90
14101;DHT22;7127;49.372;8.166;2022-12-18T00:10:41;-2.00;51.90
14101;DHT22;7127;49.372;8.166;2022-12-18T00:13:08;-2.00;51.70
14101;DHT22;7127;49.372;8.166;2022-12-18T00:15:38;-2.00;51.80
14101;DHT22;7127;49.372;8.166;2022-12-18T00:18:05;-2.00;51.80
14101;DHT22;7127;49.372;8.166;2022-12-18T00:20:36;-2.00;51.90
14101;DHT22;7127;49.372;8.166;2022-12-18T00:23:03;-2.00;52.00
14101;DHT22;7127;49.372;8.166;2022-12-18T00:25:32;-2.00;51.90
14101;DHT22;7127;49.372;8.166;2022-12-18T00:28:00;-2.00;52.00
14101;DHT22;7127;49.372;8.166;2022-12-18T00:30:27;-2.00;52.20
14101;DHT22;7127;49.372;8.166;2022-12-18T00:32:55;-2.00;52.10
14101;DHT22;7127;49.372;8.166;2022-12-18T00:35:22;-2.00;52.20
14101;DHT22;7127;49.372;8.166;2022-12-18T00:37:49;-1.90;52.30
14101;DHT22;7127;49.372;8.166;2022-12-18T00:40:16;-1.90;52.30
14101;DHT22;7127;49.372;8.166;2022-12-18T00:42:43;-1.80;52.40
14101;DHT22;7127;49.372;8.166;2022-12-18T00:45:24;-1.80;52.40
14101;DHT22;7127;49.372;8.166;2022-12-18T00:47:52;-1.70;52.60
14101;DHT22;7127;49.372;8.166;2022-12-18T00:50:20;-1.70;52.60
14101;DHT22;7127;49.372;8.166;2022-12-18T00:52:47;-1.70;52.50
14101;DHT22;7127;49.372;8.166;2022-12-18T00:55:15;-1.70;52.40
14101;DHT22;7127;49.372;8.166;2022-12-18T00:57:42;-1.60;52.50
14101;DHT22;7127;49.372;8.166;2022-12-18T01:00:11;-1.60;52.50
14101;DHT22;7127;49.372;8.166;2022-12-18T01:02:38;-1.60;52.40
14101;DHT22;7127;49.372;8.166;2022-12-18T01:05:06;-1.60;52.40
14101;DHT22;7127;49.372;8.166;2022-12-18T01:07:34;-1.60;52.30
14101;DHT22;7127;49.372;8.166;2022-12-18T01:10:01;-1.60;52.40
14101;DHT22;7127;49.372;8.166;2022-12-18T01:12:28;-1.50;52.60
14101;DHT22;7127;49.372;8.166;2022-12-18T01:14:55;-1.50;52.40
14101;DHT22;7127;49.372;8.166;2022-12-18T01:17:22;-1.50;52.30
14101;DHT22;7127;49.372;8.166;2022-12-18T01:19:49;-1.50;52.30
14101;DHT22;7127;49.372;8.166;2022-12-18T01:22:16;-1.50;52.30
14101;DHT22;7127;49.372;8.166;2022-12-18T01:24:44;-1.50;52.30
14101;DHT22;7127;49.372;8.166;2022-12-18T01:27:11;-1.50;52.20
14101;DHT22;7127;49.372;8.166;2022-12-18T01:29:38;-1.50;52.00
14101;DHT22;7127;49.372;8.166;2022-12-18T01:32:05;-1.50;52.00
14101;DHT22;7127;49.372;8.166;2022-12-18T01:34:32;-1.50;52.00
14101;DHT22;7127;49.372;8.166;2022-12-18T01:37:02;-1.60;51.80
14101;DHT22;7127;49.372;8.166;2022-12-18T01:39:29;-1.60;51.80
14101;DHT22;7127;49.372;8.166;2022-12-18T01:41:58;-1.60;51.90
14101;DHT22;7127;49.372;8.166;2022-12-18T01:45:05;-1.70;51.80
14101;DHT22;7127;49.372;8.166;2022-12-18T01:47:39;-1.60;52.10
14101;DHT22;7127;49.372;8.166;2022-12-18T01:50:09;-1.70;51.90
14101;DHT22;7127;49.372;8.166;2022-12-18T01:52:37;-1.70;51.90
14101;DHT22;7127;49.372;8.166;2022-12-18T01:55:07;-1.70;52.10
14101;DHT22;7127;49.372;8.166;2022-12-18T01:57:36;-1.80;52.00
14101;DHT22;7127;49.372;8.166;2022-12-18T02:00:08;-1.80;52.00
14101;DHT22;7127;49.372;8.166;2022-12-18T02:02:35;-1.80;52.00
14101;DHT22;7127;49.372;8.166;2022-12-18T02:05:03;-1.80;52.00
14101;DHT22;7127;49.372;8.166;2022-12-18T02:07:37;-1.80;52.00
14101;DHT22;7127;49.372;8.166;2022-12-18T02:10:10;-1.80;52.00
14101;DHT22;7127;49.372;8.166;2022-12-18T02:12:45;-1.60;52.20
14101;DHT22;7127;49.372;8.166;2022-12-18T02:15:18;-1.80;52.00
14101;DHT22;7127;49.372;8.166;2022-12-18T02:17:49;-1.80;52.00
14101;DHT22;7127;49.372;8.166;2022-12-18T02:20:20;-1.80;52.00
14101;DHT22;7127;49.372;8.166;2022-12-18T02:23:08;-1.90;52.00
14101;DHT22;7127;49.372;8.166;2022-12-18T02:26:01;-1.90;51.90
14101;DHT22;7127;49.372;8.166;2022-12-18T02:28:32;-1.90;51.70
14101;DHT22;7127;49.372;8.166;2022-12-18T02:31:02;-1.90;51.70
14101;DHT22;7127;49.372;8.166;2022-12-18T02:33:32;-1.90;51.80
14101;DHT22;7127;49.372;8.166;2022-12-18T02:36:01;-2.00;51.90
14101;DHT22;7127;49.372;8.166;2022-12-18T02:38:29;-2.00;51.90
14101;DHT22;7127;49.372;8.166;2022-12-18T02:40:57;-2.00;51.90
14101;DHT22;7127;49.372;8.166;2022-12-18T02:43:25;-2.00;51.90
14101;DHT22;7127;49.372;8.166;2022-12-18T02:45:55;-2.00;51.90
14101;DHT22;7127;49.372;8.166;2022-12-18T02:48:24;-2.00;51.90
14101;DHT22;7127;49.372;8.166;2022-12-18T02:50:59;-2.00;52.50
14101;DHT22;7127;49.372;8.166;2022-12-18T02:53:35;-2.00;52.00
14101;DHT22;7127;49.372;8.166;2022-12-18T02:56:06;-2.00;52.10
14101;DHT22;7127;49.372;8.166;2022-12-18T02:58:42;-2.00;52.20
14101;DHT22;7127;49.372;8.166;2022-12-18T03:01:16;-2.00;52.20
14101;DHT22;7127;49.372;8.166;2022-12-18T03:03:49;-2.00;52.20
14101;DHT22;7127;49.372;8.166;2022-12-18T03:06:21;-2.00;52.30
14101;DHT22;7127;49.372;8.166;2022-12-18T03:08:54;-2.00;52.30
14101;DHT22;7127;49.372;8.166;2022-12-18T03:11:25;-1.90;52.40
14101;DHT22;7127;49.372;8.166;2022-12-18T03:14:10;-1.40;52.80
14101;DHT22;7127;49.372;8.166;2022-12-18T03:16:41;-1.90;52.40
14101;DHT22;7127;49.372;8.166;2022-12-18T03:19:13;-1.80;52.40
14101;DHT22;7127;49.372;8.166;2022-12-18T03:21:44;-1.80;52.40
14101;DHT22;7127;49.372;8.166;2022-12-18T03:24:12;-1.80;52.40
14101;DHT22;7127;49.372;8.166;2022-12-18T03:26:42;-1.80;52.20
14101;DHT22;7127;49.372;8.166;2022-12-18T03:29:19;-1.80;52.10
14101;DHT22;7127;49.372;8.166;2022-12-18T03:31:53;-1.80;52.00
14101;DHT22;7127;49.372;8.166;2022-12-18T03:34:23;-1.80;52.00
14101;DHT22;7127;49.372;8.166;2022-12-18T03:36:53;-1.80;52.10
14101;DHT22;7127;49.372;8.166;2022-12-18T03:39:20;-1.80;52.10
14101;DHT22;7127;49.372;8.166;2022-12-18T03:41:51;-1.80;52.10
14101;DHT22;7127;49.372;8.166;2022-12-18T03:44:28;-1.80;52.10
14101;DHT22;7127;49.372;8.166;2022-12-18T03:47:01;-1.60;52.30
14101;DHT22;7127;49.372;8.166;2022-12-18T03:49:35;-1.80;52.20
14101;DHT22;7127;49.372;8.166;2022-12-18T03:52:07;-1.80;52.30
14101;DHT22;7127;49.372;8.166;2022-12-18T03:54:36;-1.80;52.30
14101;DHT22;7127;49.372;8.166;2022-12-18T03:57:09;-1.80;52.30
14101;DHT22;7127;49.372;8.166;2022-12-18T03:59:40;-1.80;52.30
14101;DHT22;7127;49.372;8.166;2022-12-18T04:02:08;-1.80;52.40
14101;DHT22;7127;49.372;8.166;2022-12-18T04:04:35;-1.70;52.40
14101;DHT22;7127;49.372;8.166;2022-12-18T04:07:04;-1.70;52.40
14101;DHT22;7127;49.372;8.166;2022-12-18T04:09:33;-1.70;52.40
14101;DHT22;7127;49.372;8.166;2022-12-18T04:12:00;-1.60;52.40
14101;DHT22;7127;49.372;8.166;2022-12-18T04:14:27;-1.20;52.70
14101;DHT22;7127;49.372;8.166;2022-12-18T04:16:55;-1.60;52.50
14101;DHT22;7127;49.372;8.166;2022-12-18T04:19:22;-1.60;52.40
14101;DHT22;7127;49.372;8.166;2022-12-18T04:21:49;-1.50;52.40
14101;DHT22;7127;49.372;8.166;2022-12-18T04:24:16;-1.50;52.30
14101;DHT22;7127;49.372;8.166;2022-12-18T04:26:43;-1.50;52.30
14101;DHT22;7127;49.372;8.166;2022-12-18T04:29:10;-1.50;52.10
14101;DHT22;7127;49.372;8.166;2022-12-18T04:31:37;-1.50;51.90
14101;DHT22;7127;49.372;8.166;2022-12-18T04:34:05;-1.50;52.00
14101;DHT22;7127;49.372;8.166;2022-12-18T04:36:32;-1.50;52.00
14101;DHT22;7127;49.372;8.166;2022-12-18T04:38:59;-1.00;52.60
14101;DHT22;7127;49.372;8.166;2022-12-18T04:41:26;-1.60;52.10
14101;DHT22;7127;49.372;8.166;2022-12-18T04:43:53;-1.60;52.10
14101;DHT22;7127;49.372;8.166;2022-12-18T04:46:20;-1.10;52.50
14101;DHT22;7127;49.372;8.166;2022-12-18T04:48:46;-1.60;52.20
14101;DHT22;7127;49.372;8.166;2022-12-18T04:51:15;-1.60;52.30
14101;DHT22;7127;49.372;8.166;2022-12-18T04:53:42;-1.60;52.40
14101;DHT22;7127;49.372;8.166;2022-12-18T04:56:10;-1.60;52.40
14101;DHT22;7127;49.372;8.166;2022-12-18T04:58:39;-1.50;52.40
14101;DHT22;7127;49.372;8.166;2022-12-18T05:01:07;-1.60;52.20
14101;DHT22;7127;49.372;8.166;2022-12-18T05:03:35;-1.50;52.30
14101;DHT22;7127;49.372;8.166;2022-12-18T05:06:02;-1.50;52.30
14101;DHT22;7127;49.372;8.166;2022-12-18T05:08:30;-1.50;52.30
14101;DHT22;7127;49.372;8.166;2022-12-18T05:11:01;-1.50;52.40
14101;DHT22;7127;49.372;8.166;2022-12-18T05:13:29;-1.50;52.50
14101;DHT22;7127;49.372;8.166;2022-12-18T05:15:56;-1.50;52.50
14101;DHT22;7127;49.372;8.166;2022-12-18T05:18:23;-1.40;52.60
14101;DHT22;7127;49.372;8.166;2022-12-18T05:20:51;-1.40;52.60
14101;DHT22;7127;49.372;8.166;2022-12-18T05:23:18;-1.40;52.50
14101;DHT22;7127;49.372;8.166;2022-12-18T05:25:50;-1.40;52.70
14101;DHT22;7127;49.372;8.166;2022-12-18T05:28:18;-1.40;52.60
14101;DHT22;7127;49.372;8.166;2022-12-18T05:30:48;-1.40;52.60
14101;DHT22;7127;49.372;8.166;2022-12-18T05:33:16;-1.40;52.50
14101;DHT22;7127;49.372;8.166;2022-12-18T05:35:43;-1.40;52.40
14101;DHT22;7127;49.372;8.166;2022-12-18T05:38:10;-1.40;52.30
14101;DHT22;7127;49.372;8.166;2022-12-18T05:40:37;-0.60;52.90
14101;DHT22;7127;49.372;8.166;2022-12-18T05:43:09;-1.40;52.30
14101;DHT22;7127;49.372;8.166;2022-12-18T05:45:37;-1.40;52.30
14101;DHT22;7127;49.372;8.166;2022-12-18T05:48:04;-1.40;52.40
14101;DHT22;7127;49.372;8.166;2022-12-18T05:50:34;-1.40;52.50
14101;DHT22;7127;49.372;8.166;2022-12-18T05:53:01;-1.40;52.40
14101;DHT22;7127;49.372;8.166;2022-12-18T05:55:27;-0.60;53.10
14101;DHT22;7127;49.372;8.166;2022-12-18T05:57:54;-1.40;52.40
14101;DHT22;7127;49.372;8.166;2022-12-18T06:00:22;-1.40;52.30
14101;DHT22;7127;49.372;8.166;2022-12-18T06:02:49;-1.40;52.30
14101;DHT22;7127;49.372;8.166;2022-12-18T06:05:16;-1.30;52.40
14101;DHT22;7127;49.372;8.166;2022-12-18T06:07:43;-1.30;52.40
14101;DHT22;7127;49.372;8.166;2022-12-18T06:10:10;-1.30;52.50
14101;DHT22;7127;49.372;8.166;2022-12-18T06:12:37;-1.40;52.40
14101;DHT22;7127;49.372;8.166;2022-12-18T06:15:05;-1.00;52.60
14101;DHT22;7127;49.372;8.166;2022-12-18T06:17:34;-1.40;52.30
14101;DHT22;7127;49.372;8.166;2022-12-18T06:20:01;-1.30;52.40
14101;DHT22;7127;49.372;8.166;2022-12-18T06:22:28;-1.40;52.30
14101;DHT22;7127;49.372;8.166;2022-12-18T06:24:56;-1.40;52.30
14101;DHT22;7127;49.372;8.166;2022-12-18T06:27:25;-1.40;52.30
14101;DHT22;7127;49.372;8.166;2022-12-18T06:29:51;-0.50;53.00
14101;DHT22;7127;49.372;8.166;2022-12-18T06:32:18;-1.40;52.30
14101;DHT22;7127;49.372;8.166;2022-12-18T06:34:47;-1.10;52.50
14101;DHT22;7127;49.372;8.166;2022-12-18T06:37:13;-1.40;52.30
14101;DHT22;7127;49.372;8.166;2022-12-18T06:39:40;-1.40;52.30
14101;DHT22;7127;49.372;8.166;2022-12-18T06:42:07;-1.40;52.30
14101;DHT22;7127;49.372;8.166;2022-12-18T06:44:34;-1.40;52.30
14101;DHT22;7127;49.372;8.166;2022-12-18T06:47:01;-0.60;52.80
14101;DHT22;7127;49.372;8.166;2022-12-18T06:49:28;-1.40;52.30
14101;DHT22;7127;49.372;8.166;2022-12-18T06:51:57;-1.40;52.30
14101;DHT22;7127;49.372;8.166;2022-12-18T06:54:24;-0.50;53.00
14101;DHT22;7127;49.372;8.166;2022-12-18T06:56:51;-0.30;53.10
14101;DHT22;7127;49.372;8.166;2022-12-18T06:59:18;-1.40;52.30
14101;DHT22;7127;49.372;8.166;2022-12-18T07:01:45;-1.30;52.40
14101;DHT22;7127;49.372;8.166;2022-12-18T07:04:12;-0.40;53.00
14101;DHT22;7127;49.372;8.166;2022-12-18T07:06:39;-1.30;52.40
14101;DHT22;7127;49.372;8.166;2022-12-18T07:09:07;-1.30;52.40
14101;DHT22;7127;49.372;8.166;2022-12-18T07:11:34;-1.30;52.40
14101;DHT22;7127;49.372;8.166;2022-12-18T07:14:01;-1.30;52.40
14101;DHT22;7127;49.372;8.166;2022-12-18T07:16:28;-1.30;52.30
14101;DHT22;7127;49.372;8.166;2022-12-18T07:18:55;-1.00;52.60
14101;DHT22;7127;49.372;8.166;2022-12-18T07:21:23;-1.30;52.30
14101;DHT22;7127;49.372;8.166;2022-12-18T07:23:50;-1.30;52.30
14101;DHT22;7127;49.372;8.166;2022-12-18T07:26:20;-1.30;52.30
14101;DHT22;7127;49.372;8.166;2022-12-18T07:28:47;-1.30;52.30
14101;DHT22;7127;49.372;8.166;2022-12-18T07:31:16;-1.30;52.20
14101;DHT22;7127;49.372;8.166;2022-12-18T07:33:44;-1.30;52.10
14101;DHT22;7127;49.372;8.166;2022-12-18T07:36:13;-1.30;52.10
14101;DHT22;7127;49.372;8.166;2022-12-18T07:38:41;-1.30;52.10
14101;DHT22;7127;49.372;8.166;2022-12-18T07:41:09;-0.70;52.50
14101;DHT22;7127;49.372;8.166;2022-12-18T07:43:38;-1.30;52.10
14101;DHT22;7127;49.372;8.166;2022-12-18T07:46:07;-1.40;52.00
14101;DHT22;7127;49.372;8.166;2022-12-18T07:48:34;-1.30;52.10
14101;DHT22;7127;49.372;8.166;2022-12-18T07:51:02;-1.30;52.10
14101;DHT22;7127;49.372;8.166;2022-12-18T07:53:30;-1.30;52.10
14101;DHT22;7127;49.372;8.166;2022-12-18T07:55:57;-1.30;52.10
14101;DHT22;7127;49.372;8.166;2022-12-18T07:58:24;-1.30;52.10
14101;DHT22;7127;49.372;8.166;2022-12-18T08:00:52;-0.80;52.50
14101;DHT22;7127;49.372;8.166;2022-12-18T08:03:20;-0.50;52.70
14101;DHT22;7127;49.372;8.166;2022-12-18T08:05:47;-1.30;52.10
14101;DHT22;7127;49.372;8.166;2022-12-18T08:08:14;-0.90;52.40
14101;DHT22;7127;49.372;8.166;2022-12-18T08:10:41;-1.10;52.30
14101;DHT22;7127;49.372;8.166;2022-12-18T08:13:08;0.00;53.00
14101;DHT22;7127;49.372;8.166;2022-12-18T08:15:35;-0.50;52.60
14101;DHT22;7127;49.372;8.166;2022-12-18T08:18:03;-0.60;52.60
14101;DHT22;7127;49.372;8.166;2022-12-18T08:20:30;-0.80;52.40
14101;DHT22;7127;49.372;8.166;2022-12-18T08:22:57;-0.70;52.50
14101;DHT22;7127;49.372;8.166;2022-12-18T08:25:24;-0.30;52.80
14101;DHT22;7127;49.372;8.166;2022-12-18T08:27:51;-0.70;52.50
14101;DHT22;7127;49.372;8.166;2022-12-18T08:30:22;-0.90;52.30
14101;DHT22;7127;49.372;8.166;2022-12-18T08:32:51;-1.20;52.10
14101;DHT22;7127;49.372;8.166;2022-12-18T08:35:21;-1.20;52.10
14101;DHT22;7127;49.372;8.166;2022-12-18T08:48:08;-1.10;52.30
14101;DHT22;7127;49.372;8.166;2022-12-18T08:50:37;-1.00;52.30
14101;DHT22;7127;49.372;8.166;2022-12-18T08:53:04;-1.00;52.30
14101;DHT22;7127;49.372;8.166;2022-12-18T08:55:30;-1.00;52.30
14101;DHT22;7127;49.372;8.166;2022-12-18T08:57:58;-0.90;52.40
14101;DHT22;7127;49.372;8.166;2022-12-18T09:00:25;-0.90;52.40
14101;DHT22;7127;49.372;8.166;2022-12-18T09:02:52;-0.80;52.40
14101;DHT22;7127;49.372;8.166;2022-12-18T09:05:18;-0.80;52.30
14101;DHT22;7127;49.372;8.166;2022-12-18T09:07:47;-0.80;52.30
14101;DHT22;7127;49.372;8.166;2022-12-18T09:10:14;-0.20;52.70
14101;DHT22;7127;49.372;8.166;2022-12-18T09:12:40;-0.70;52.30
14101;DHT22;7127;49.372;8.166;2022-12-18T09:15:08;-0.20;52.60
14101;DHT22;7127;49.372;8.166;2022-12-18T09:17:35;-0.60;52.30
14101;DHT22;7127;49.372;8.166;2022-12-18T09:20:02;-0.60;52.30
14101;DHT22;7127;49.372;8.166;2022-12-18T09:22:29;-0.50;52.30
14101;DHT22;7127;49.372;8.166;2022-12-18T09:24:57;-0.50;52.20
14101;DHT22;7127;49.372;8.166;2022-12-18T09:27:24;-0.50;52.10
14101;DHT22;7127;49.372;8.166;2022-12-18T09:29:51;-0.10;52.40
14101;DHT22;7127;49.372;8.166;2022-12-18T09:32:18;-0.40;52.20
14101;DHT22;7127;49.372;8.166;2022-12-18T09:34:45;-0.40;52.10
14101;DHT22;7127;49.372;8.166;2022-12-18T09:37:12;-0.30;52.70
14101;DHT22;7127;49.372;8.166;2022-12-18T09:39:39;-0.30;52.10
14101;DHT22;7127;49.372;8.166;2022-12-18T09:42:14;-0.30;52.10
14101;DHT22;7127;49.372;8.166;2022-12-18T09:44:48;-0.30;52.10
14101;DHT22;7127;49.372;8.166;2022-12-18T09:47:17;-0.20;52.20
14101;DHT22;7127;49.372;8.166;2022-12-18T09:49:48;-0.20;52.10
14101;DHT22;7127;49.372;8.166;2022-12-18T09:52:21;-0.20;52.20
14101;DHT22;7127;49.372;8.166;2022-12-18T09:54:53;0.50;52.70
14101;DHT22;7127;49.372;8.166;2022-12-18T09:57:24;-0.10;52.20
14101;DHT22;7127;49.372;8.166;2022-12-18T09:59:54;-0.10;52.00
14101;DHT22;7127;49.372;8.166;2022-12-18T10:02:24;0.10;52.00
14101;DHT22;7127;49.372;8.166;2022-12-18T10:05:03;0.60;52.50
14101;DHT22;7127;49.372;8.166;2022-12-18T10:07:43;0.00;52.20
14101;DHT22;7127;49.372;8.166;2022-12-18T10:10:33;0.00;52.30
14101;DHT22;7127;49.372;8.166;2022-12-18T10:13:09;0.10;52.60
14101;DHT22;7127;49.372;8.166;2022-12-18T10:15:50;0.20;52.70
14101;DHT22;7127;49.372;8.166;2022-12-18T10:18:29;0.30;52.80
14101;DHT22;7127;49.372;8.166;2022-12-18T10:21:02;0.30;52.80
14101;DHT22;7127;49.372;8.166;2022-12-18T10:23:39;0.40;52.80
14101;DHT22;7127;49.372;8.166;2022-12-18T10:26:10;1.30;53.40
14101;DHT22;7127;49.372;8.166;2022-12-18T10:28:40;1.50;53.50
14101;DHT22;7127;49.372;8.166;2022-12-18T10:31:10;1.20;53.10
14101;DHT22;7127;49.372;8.166;2022-12-18T10:33:39;0.80;52.60
14101;DHT22;7127;49.372;8.166;2022-12-18T10:36:07;0.80;52.60
14101;DHT22;7127;49.372;8.166;2022-12-18T10:38:34;0.90;52.60
14101;DHT22;7127;49.372;8.166;2022-12-18T10:41:03;0.90;52.40
14101;DHT22;7127;49.372;8.166;2022-12-18T10:43:31;1.00;52.40
14101;DHT22;7127;49.372;8.166;2022-12-18T10:46:04;1.10;52.60
14101;DHT22;7127;49.372;8.166;2022-12-18T10:48:34;1.10;52.30
14101;DHT22;7127;49.372;8.166;2022-12-18T10:51:02;1.20;52.30
14101;DHT22;7127;49.372;8.166;2022-12-18T10:53:31;1.20;52.30
14101;DHT22;7127;49.372;8.166;2022-12-18T10:55:59;1.30;52.40
14101;DHT22;7127;49.372;8.166;2022-12-18T10:58:28;1.30;52.30
14101;DHT22;7127;49.372;8.166;2022-12-18T11:01:10;1.40;52.40
14101;DHT22;7127;49.372;8.166;2022-12-18T11:03:39;2.10;52.70
14101;DHT22;7127;49.372;8.166;2022-12-18T11:06:09;1.40;52.10
14101;DHT22;7127;49.372;8.166;2022-12-18T11:08:36;1.40;51.80
14101;DHT22;7127;49.372;8.166;2022-12-18T11:11:07;1.50;51.90
14101;DHT22;7127;49.372;8.166;2022-12-18T11:13:42;1.90;52.30
14101;DHT22;7127;49.372;8.166;2022-12-18T11:16:20;1.60;52.00
14101;DHT22;7127;49.372;8.166;2022-12-18T11:18:47;1.50;51.60
14101;DHT22;7127;49.372;8.166;2022-12-18T11:21:14;1.60;51.70
14101;DHT22;7127;49.372;8.166;2022-12-18T11:23:47;1.70;51.90
14101;DHT22;7127;49.372;8.166;2022-12-18T11:26:15;1.60;51.70
14101;DHT22;7127;49.372;8.166;2022-12-18T11:28:44;1.80;51.60
14101;DHT22;7127;49.372;8.166;2022-12-18T11:31:24;1.60;51.50
14101;DHT22;7127;49.372;8.166;2022-12-18T11:33:59;1.60;51.70
14101;DHT22;7127;49.372;8.166;2022-12-18T11:36:31;1.60;51.60
14101;DHT22;7127;49.372;8.166;2022-12-18T11:39:02;1.60;51.40
14101;DHT22;7127;49.372;8.166;2022-12-18T11:41:32;2.50;52.20
14101;DHT22;7127;49.372;8.166;2022-12-18T11:44:24;1.60;51.50
14101;DHT22;7127;49.372;8.166;2022-12-18T11:46:56;1.60;51.40
14101;DHT22;7127;49.372;8.166;2022-12-18T11:49:28;1.60;51.40
14101;DHT22;7127;49.372;8.166;2022-12-18T11:52:00;1.60;51.50
14101;DHT22;7127;49.372;8.166;2022-12-18T11:54:28;2.40;52.00
14101;DHT22;7127;49.372;8.166;2022-12-18T11:56:58;1.70;51.50
14101;DHT22;7127;49.372;8.166;2022-12-18T11:59:35;1.60;51.40
14101;DHT22;7127;49.372;8.166;2022-12-18T12:02:22;1.70;51.50
14101;DHT22;7127;49.372;8.166;2022-12-18T12:05:31;1.70;51.30
14101;DHT22;7127;49.372;8.166;2022-12-18T12:08:03;1.70;50.90
14101;DHT22;7127;49.372;8.166;2022-12-18T12:10:41;1.70;51.10
14101;DHT22;7127;49.372;8.166;2022-12-18T12:13:24;1.70;50.90
14101;DHT22;7127;49.372;8.166;2022-12-18T12:16:03;2.20;51.20
14101;DHT22;7127;49.372;8.166;2022-12-18T12:18:41;1.70;51.10
14101;DHT22;7127;49.372;8.166;2022-12-18T12:21:14;1.70;51.20
14101;DHT22;7127;49.372;8.166;2022-12-18T12:23:50;1.70;51.20
14101;DHT22;7127;49.372;8.166;2022-12-18T12:26:25;1.70;51.20
14101;DHT22;7127;49.372;8.166;2022-12-18T12:29:01;1.70;51.30
14101;DHT22;7127;49.372;8.166;2022-12-18T12:31:43;1.70;51.40
14101;DHT22;7127;49.372;8.166;2022-12-18T12:34:18;1.70;51.30
14101;DHT22;7127;49.372;8.166;2022-12-18T12:36:57;1.70;51.10
14101;DHT22;7127;49.372;8.166;2022-12-18T12:39:30;1.70;51.20
14101;DHT22;7127;49.372;8.166;2022-12-18T12:41:57;1.80;51.30
14101;DHT22;7127;49.372;8.166;2022-12-18T12:44:45;1.80;51.30
14101;DHT22;7127;49.372;8.166;2022-12-18T12:47:18;2.60;52.00
14101;DHT22;7127;49.372;8.166;2022-12-18T12:49:48;1.90;51.50
14101;DHT22;7127;49.372;8.166;2022-12-18T12:52:22;1.90;51.50
14101;DHT22;7127;49.372;8.166;2022-12-18T12:54:53;2.00;51.70
14101;DHT22;7127;49.372;8.166;2022-12-18T12:57:22;2.60;51.90
14101;DHT22;7127;49.372;8.166;2022-12-18T12:59:57;2.60;52.00
14101;DHT22;7127;49.372;8.166;2022-12-18T13:02:32;2.10;51.50
14101;DHT22;7127;49.372;8.166;2022-12-18T13:05:09;2.10;51.30
14101;DHT22;7127;49.372;8.166;2022-12-18T13:07:41;2.10;51.10
14101;DHT22;7127;49.372;8.166;2022-12-18T13:10:19;2.10;50.80
14101;DHT22;7127;49.372;8.166;2022-12-18T13:12:53;2.10;50.90
14101;DHT22;7127;49.372;8.166;2022-12-18T13:15:24;2.10;50.90
14101;DHT22;7127;49.372;8.166;2022-12-18T13:18:19;2.10;51.10
14101;DHT22;7127;49.372;8.166;2022-12-18T13:20:50;2.10;51.10
14101;DHT22;7127;49.372;8.166;2022-12-18T13:23:29;2.10;51.20
14101;DHT22;7127;49.372;8.166;2022-12-18T13:25:58;2.10;50.90
14101;DHT22;7127;49.372;8.166;2022-12-18T13:28:50;2.10;51.00
14101;DHT22;7127;49.372;8.166;2022-12-18T13:34:19;2.10;50.90
14101;DHT22;7127;49.372;8.166;2022-12-18T13:36:48;2.40;51.00
14101;DHT22;7127;49.372;8.166;2022-12-18T13:39:34;2.10;50.70
14101;DHT22;7127;49.372;8.166;2022-12-18T13:42:31;2.10;50.70
14101;DHT22;7127;49.372;8.166;2022-12-18T13:45:42;2.10;50.70
14101;DHT22;7127;49.372;8.166;2022-12-18T13:48:18;2.00;50.60
14101;DHT22;7127;49.372;8.166;2022-12-18T13:50:49;2.00;50.60
14101;DHT22;7127;49.372;8.166;2022-12-18T13:53:21;2.00;50.70
14101;DHT22;7127;49.372;8.166;2022-12-18T13:55:50;2.60;51.20
14101;DHT22;7127;49.372;8.166;2022-12-18T13:58:17;1.90;50.70
14101;DHT22;7127;49.372;8.166;2022-12-18T14:00:44;2.40;51.00
14101;DHT22;7127;49.372;8.166;2022-12-18T14:03:22;1.90;50.80
14101;DHT22;7127;49.372;8.166;2022-12-18T14:05:56;1.90;50.90
14101;DHT22;7127;49.372;8.166;2022-12-18T14:08:29;1.90;51.00
14101;DHT22;7127;49.372;8.166;2022-12-18T14:10:59;2.00;51.20
14101;DHT22;7127;49.372;8.166;2022-12-18T14:13:29;1.90;51.10
14101;DHT22;7127;49.372;8.166;2022-12-18T14:15:57;1.90;51.10
14101;DHT22;7127;49.372;8.166;2022-12-18T14:18:30;2.30;51.40
14101;DHT22;7127;49.372;8.166;2022-12-18T14:21:00;2.00;51.20
14101;DHT22;7127;49.372;8.166;2022-12-18T14:23:32;2.00;51.20
14101;DHT22;7127;49.372;8.166;2022-12-18T14:25:59;2.40;51.40
14101;DHT22;7127;49.372;8.166;2022-12-18T14:28:27;2.00;51.20
14101;DHT22;7127;49.372;8.166;2022-12-18T14:30:54;2.00;51.20
14101;DHT22;7127;49.372;8.166;2022-12-18T14:33:23;2.00;51.20
14101;DHT22;7127;49.372;8.166;2022-12-18T14:35:56;2.00;51.20
14101;DHT22;7127;49.372;8.166;2022-12-18T14:38:26;2.80;51.70
14101;DHT22;7127;49.372;8.166;2022-12-18T14:41:05;2.00;51.20
14101;DHT22;7127;49.372;8.166;2022-12-18T14:43:33;2.00;51.10
14101;DHT22;7127;49.372;8.166;2022-12-18T14:46:01;2.00;51.20
14101;DHT22;7127;49.372;8.166;2022-12-18T14:48:37;2.30;51.40
14101;DHT22;7127;49.372;8.166;2022-12-18T14:51:06;2.00;51.10
14101;DHT22;7127;49.372;8.166;2022-12-18T14:53:42;2.00;51.10
14101;DHT22;7127;49.372;8.166;2022-12-18T14:56:17;2.00;51.10
14101;DHT22;7127;49.372;8.166;2022-12-18T14:58:48;1.90;51.00
14101;DHT22;7127;49.372;8.166;2022-12-18T15:01:24;1.90;51.00
14101;DHT22;7127;49.372;8.166;2022-12-18T15:03:52;1.90;51.10
14101;DHT22;7127;49.372;8.166;2022-12-18T15:06:30;2.00;51.20
14101;DHT22;7127;49.372;8.166;2022-12-18T15:08:58;2.00;51.20
14101;DHT22;7127;49.372;8.166;2022-12-18T15:11:35;1.90;51.20
14101;DHT22;7127;49.372;8.166;2022-12-18T15:14:31;1.90;51.20
14101;DHT22;7127;49.372;8.166;2022-12-18T15:16:59;1.90;51.20
14101;DHT22;7127;49.372;8.166;2022-12-18T15:19:33;2.10;51.30
14101;DHT22;7127;49.372;8.166;2022-12-18T15:22:03;2.10;51.40
14101;DHT22;7127;49.372;8.166;2022-12-18T15:24:31;1.80;51.20
14101;DHT22;7127;49.372;8.166;2022-12-18T15:27:00;1.80;51.20
14101;DHT22;7127;49.372;8.166;2022-12-18T15:29:27;2.20;51.50
14101;DHT22;7127;49.372;8.166;2022-12-18T15:32:02;2.00;51.40
14101;DHT22;7127;49.372;8.166;2022-12-18T15:34:29;1.80;51.30
14101;DHT22;7127;49.372;8.166;2022-12-18T15:36:57;1.80;51.30
14101;DHT22;7127;49.372;8.166;2022-12-18T15:39:24;1.80;51.30
14101;DHT22;7127;49.372;8.166;2022-12-18T15:41:51;1.80;51.40
14101;DHT22;7127;49.372;8.166;2022-12-18T15:44:36;1.80;51.40
14101;DHT22;7127;49.372;8.166;2022-12-18T15:47:10;1.80;51.50
14101;DHT22;7127;49.372;8.166;2022-12-18T15:49:37;2.30;51.90
14101;DHT22;7127;49.372;8.166;2022-12-18T15:52:05;2.40;51.90
14101;DHT22;7127;49.372;8.166;2022-12-18T15:54:32;1.80;51.50
14101;DHT22;7127;49.372;8.166;2022-12-18T15:57:16;1.80;51.50
14101;DHT22;7127;49.372;8.166;2022-12-18T15:59:55;1.80;51.60
14101;DHT22;7127;49.372;8.166;2022-12-18T16:02:24;1.80;51.60
14101;DHT22;7127;49.372;8.166;2022-12-18T16:04:51;1.90;51.80
14101;DHT22;7127;49.372;8.166;2022-12-18T16:07:19;1.80;51.70
14101;DHT22;7127;49.372;8.166;2022-12-18T16:09:46;1.90;51.80
14101;DHT22;7127;49.372;8.166;2022-12-18T16:12:16;1.90;51.80
14101;DHT22;7127;49.372;8.166;2022-12-18T16:14:43;1.90;51.80
14101;DHT22;7127;49.372;8.166;2022-12-18T16:17:13;1.90;51.80
14101;DHT22;7127;49.372;8.166;2022-12-18T16:19:40;1.90;51.80
14101;DHT22;7127;49.372;8.166;2022-12-18T16:22:17;2.10;52.60
14101;DHT22;7127;49.372;8.166;2022-12-18T16:24:44;2.00;51.90
14101;DHT22;7127;49.372;8.166;2022-12-18T16:27:11;2.00;51.90